Time;durP1;ratioP1;P1;durP2;ratioP2;P2;SDS_P1;SDS_P2;PMS_P1;PMS_P2;Temp;Humidity;BMP_temperature;BMP_pressure;BME280_temperature;BME280_humidity;BME280_pressure;Samples;Min_cycle;Max_cycle;Signal;HPM_P1;HPM_P2
2023/03/28 00:01:57;;;;;;;2.65;1.73;;;2.20;99.90;;;;;;5048322;28;20683;-79
2023/03/28 00:04:23;;;;;;;4.97;1.35;;;2.20;99.90;;;;;;5043180;28;20104;-79
2023/03/28 00:06:49;;;;;;;3.72;1.60;;;2.20;99.90;;;;;;5041680;28;20028;-79
2023/03/28 00:09:16;;;;;;;2.83;1.50;;;2.10;99.90;;;;;;5049730;28;20465;-79
2023/03/28 00:11:42;;;;;;;6.72;1.48;;;2.10;99.90;;;;;;5045831;28;20503;-79
2023/03/28 00:14:08;;;;;;;6.57;2.25;;;2.20;99.90;;;;;;5047609;28;20047;-79
2023/03/28 00:16:36;;;;;;;4.18;2.00;;;2.10;99.90;;;;;;5048377;28;20478;-79
2023/03/28 00:19:05;;;;;;;4.70;1.90;;;2.10;99.90;;;;;;5045782;28;20116;-80
2023/03/28 00:21:34;;;;;;;5.22;2.47;;;2.10;99.90;;;;;;5046988;28;20025;-80
2023/03/28 00:24:01;;;;;;;4.22;1.98;;;2.10;99.90;;;;;;5044129;28;20029;-79
2023/03/28 00:26:30;;;;;;;3.72;1.83;;;2.10;99.90;;;;;;5044966;28;20077;-79
2023/03/28 00:28:56;;;;;;;4.97;2.03;;;2.10;99.90;;;;;;5042384;28;20040;-80
2023/03/28 00:31:24;;;;;;;3.13;2.05;;;2.10;99.90;;;;;;5046939;28;20029;-80
2023/03/28 00:33:49;;;;;;;3.95;2.20;;;2.10;99.90;;;;;;5046637;28;20029;-80
2023/03/28 00:36:22;;;;;;;4.88;2.08;;;2.10;99.90;;;;;;5043664;28;20029;-80
2023/03/28 00:38:55;;;;;;;4.13;2.10;;;2.10;99.90;;;;;;4989879;28;20045;-80
2023/03/28 00:41:25;;;;;;;2.72;1.73;;;2.10;99.90;;;;;;5008837;28;20096;-80
2023/03/28 00:43:53;;;;;;;4.57;2.13;;;2.20;99.90;;;;;;5008314;28;20446;-80
2023/03/28 00:46:26;;;;;;;6.75;2.20;;;2.20;99.90;;;;;;5021363;28;20096;-80
2023/03/28 00:48:55;;;;;;;4.13;1.98;;;2.20;99.90;;;;;;5005380;28;20021;-80
2023/03/28 00:51:25;;;;;;;4.00;2.00;;;2.20;99.90;;;;;;5006832;28;20490;-80
2023/03/28 00:53:53;;;;;;;3.40;1.98;;;2.20;99.90;;;;;;5009552;28;20034;-80
2023/03/28 00:56:33;;;;;;;4.95;2.38;;;2.20;99.90;;;;;;5005096;28;20085;-80
2023/03/28 00:59:05;;;;;;;3.47;2.20;;;2.20;99.90;;;;;;5009690;28;20029;-79
2023/03/28 01:01:31;;;;;;;3.53;2.20;;;2.20;99.90;;;;;;5024679;28;20021;-79
2023/03/28 01:04:01;;;;;;;5.45;2.05;;;2.20;99.90;;;;;;5008793;28;20089;-79
2023/03/28 01:06:31;;;;;;;4.57;2.22;;;2.30;99.90;;;;;;5008068;28;20390;-80
2023/03/28 01:09:01;;;;;;;6.30;2.30;;;2.30;99.90;;;;;;5010008;28;20028;-79
2023/03/28 01:11:27;;;;;;;4.82;2.35;;;2.30;99.90;;;;;;5007504;28;20030;-80
2023/03/28 01:13:55;;;;;;;4.43;2.47;;;2.30;99.90;;;;;;5008677;28;20057;-80
2023/03/28 01:16:21;;;;;;;10.15;2.80;;;2.30;99.90;;;;;;5005383;28;20125;-80
2023/03/28 01:18:50;;;;;;;4.38;2.50;;;2.30;99.90;;;;;;5007827;28;20030;-79
2023/03/28 01:21:34;;;;;;;4.57;2.00;;;2.30;99.90;;;;;;5007253;28;20064;-79
2023/03/28 01:24:11;;;;;;;4.82;2.40;;;2.30;99.90;;;;;;5007494;28;20053;-80
2023/03/28 01:27:00;;;;;;;3.03;1.98;;;2.30;99.90;;;;;;5008058;28;20030;-79
2023/03/28 01:29:48;;;;;;;4.35;2.85;;;2.30;99.90;;;;;;5006079;28;20033;-80
2023/03/28 01:32:29;;;;;;;5.38;2.45;;;2.30;99.90;;;;;;5006592;28;20033;-79
2023/03/28 01:35:32;;;;;;;5.65;2.45;;;2.30;99.90;;;;;;5008889;28;20129;-79
2023/03/28 01:38:18;;;;;;;3.88;2.55;;;2.40;99.90;;;;;;5006193;28;20159;-79
2023/03/28 01:41:11;;;;;;;5.07;2.40;;;2.40;99.90;;;;;;5006985;28;20032;-79
2023/03/28 01:43:55;;;;;;;5.43;2.58;;;2.40;99.90;;;;;;5010304;28;20014;-78
2023/03/28 01:46:32;;;;;;;3.70;2.35;;;2.40;99.90;;;;;;5008932;28;20036;-79
2023/03/28 01:49:22;;;;;;;9.10;2.72;;;2.40;99.90;;;;;;5008859;28;20044;-79
2023/03/28 01:51:53;;;;;;;5.30;2.30;;;2.40;99.90;;;;;;5008053;28;20074;-79
2023/03/28 01:54:25;;;;;;;3.08;2.20;;;2.40;99.90;;;;;;5008455;28;20026;-79
2023/03/28 01:57:09;;;;;;;5.78;2.30;;;2.40;99.90;;;;;;5008885;28;20033;-79
2023/03/28 01:59:41;;;;;;;;;;;2.40;99.90;;;;;;5007655;28;20113;-78
2023/03/28 02:02:48;;;;;;;3.15;2.03;;;2.30;99.90;;;;;;5019718;28;19969;-79
2023/03/28 02:05:18;;;;;;;3.22;2.13;;;2.30;99.90;;;;;;5012812;28;20060;-79
2023/03/28 02:07:47;;;;;;;3.53;2.33;;;2.20;99.90;;;;;;5010509;28;20101;-79
2023/03/28 02:10:16;;;;;;;4.28;2.03;;;2.20;99.90;;;;;;5012839;28;20048;-79
2023/03/28 02:12:47;;;;;;;4.28;2.25;;;2.10;99.90;;;;;;5013465;28;20030;-79
2023/03/28 02:15:16;;;;;;;7.43;2.58;;;2.10;99.90;;;;;;5010155;28;20030;-79
2023/03/28 02:17:48;;;;;;;7.50;2.60;;;2.10;99.90;;;;;;5008947;28;20034;-80
2023/03/28 02:20:18;;;;;;;6.30;2.60;;;2.10;99.90;;;;;;5006604;28;20026;-80
2023/03/28 02:23:07;;;;;;;4.10;2.50;;;2.00;99.90;;;;;;5014873;28;20026;-80
2023/03/28 02:25:33;;;;;;;5.60;3.00;;;2.00;99.90;;;;;;5014473;28;20042;-79
2023/03/28 02:28:04;;;;;;;5.75;3.03;;;2.00;99.90;;;;;;5018040;28;20026;-79
2023/03/28 02:30:30;;;;;;;7.97;3.13;;;2.00;99.90;;;;;;5021996;28;20030;-80
2023/03/28 02:33:04;;;;;;;4.35;2.58;;;1.90;99.90;;;;;;5007059;28;20121;-79
2023/03/28 02:35:56;;;;;;;4.78;2.75;;;1.90;99.90;;;;;;5021755;28;20099;-79
2023/03/28 02:38:33;;;;;;;5.22;2.33;;;1.90;99.90;;;;;;5008731;28;20030;-79
2023/03/28 02:41:12;;;;;;;4.93;3.05;;;1.80;99.90;;;;;;5009736;28;20033;-79
2023/03/28 02:43:50;;;;;;;4.43;2.95;;;1.80;99.90;;;;;;5006050;28;20049;-79
2023/03/28 02:46:27;;;;;;;6.57;3.22;;;1.70;99.90;;;;;;5006551;28;20105;-80
2023/03/28 02:49:37;;;;;;;4.20;2.85;;;1.70;99.90;;;;;;5006980;28;20026;-80
2023/03/28 02:52:10;;;;;;;4.63;2.72;;;1.70;99.90;;;;;;5010296;28;20465;-79
2023/03/28 02:54:51;;;;;;;5.38;2.72;;;1.70;99.90;;;;;;5010206;28;20025;-80
2023/03/28 02:57:48;;;;;;;7.03;3.40;;;1.60;99.90;;;;;;5006701;28;20088;-81
2023/03/28 03:00:18;;;;;;;6.78;2.88;;;1.60;99.90;;;;;;5008400;28;20034;-80
2023/03/28 03:02:50;;;;;;;8.55;3.53;;;1.60;99.90;;;;;;5013471;28;20101;-80
2023/03/28 03:05:19;;;;;;;5.60;2.92;;;1.50;99.90;;;;;;5012423;28;20025;-80
2023/03/28 03:07:45;;;;;;;6.70;3.03;;;1.50;99.90;;;;;;5015358;28;20025;-80
2023/03/28 03:10:12;;;;;;;5.43;2.85;;;1.50;99.90;;;;;;5013676;28;20036;-81
2023/03/28 03:12:39;;;;;;;9.10;3.60;;;1.50;99.90;;;;;;5013171;28;20022;-80
2023/03/28 03:15:06;;;;;;;7.13;3.42;;;1.50;99.90;;;;;;5012760;28;20108;-80
2023/03/28 03:17:32;;;;;;;6.72;3.40;;;1.50;99.90;;;;;;5012663;28;20030;-81
2023/03/28 03:19:58;;;;;;;6.40;3.20;;;1.40;99.90;;;;;;5012534;28;20026;-80
2023/03/28 03:22:24;;;;;;;5.43;3.05;;;1.30;99.90;;;;;;5016076;28;20076;-81
2023/03/28 03:24:50;;;;;;;7.38;3.58;;;1.30;99.90;;;;;;5011372;28;20049;-81
2023/03/28 03:27:20;;;;;;;6.50;3.33;;;1.30;99.90;;;;;;5010203;28;20033;-81
2023/03/28 03:29:47;;;;;;;6.97;3.65;;;1.30;99.90;;;;;;5017612;28;20367;-81
2023/03/28 03:32:13;;;;;;;8.35;3.40;;;1.20;99.90;;;;;;5017537;28;20037;-81
2023/03/28 03:34:40;;;;;;;5.68;3.15;;;1.20;99.90;;;;;;5018768;28;20506;-80
2023/03/28 03:37:08;;;;;;;7.18;3.47;;;1.20;99.90;;;;;;5019707;28;20385;-80
2023/03/28 03:39:35;;;;;;;5.00;3.60;;;1.10;99.90;;;;;;5029247;28;20053;-80
2023/03/28 03:42:01;;;;;;;7.85;3.63;;;1.10;99.90;;;;;;5016164;28;20464;-80
2023/03/28 03:44:27;;;;;;;5.88;3.95;;;1.10;99.90;;;;;;5016278;28;20018;-81
2023/03/28 03:46:52;;;;;;;10.07;3.40;;;1.10;99.90;;;;;;5011509;28;20027;-80
2023/03/28 03:49:18;;;;;;;6.68;4.13;;;1.10;99.90;;;;;;5033032;28;20481;-80
2023/03/28 03:51:44;;;;;;;7.80;4.05;;;1.10;99.90;;;;;;5020302;22;20141;-75
2023/03/28 03:54:10;;;;;;;8.60;3.90;;;1.10;99.90;;;;;;4986223;28;20537;-74
2023/03/28 03:56:36;;;;;;;8.85;4.53;;;1.00;99.90;;;;;;4996984;28;20165;-74
2023/03/28 03:59:02;;;;;;;7.38;4.05;;;1.00;99.90;;;;;;4997561;28;20085;-76
2023/03/28 04:01:28;;;;;;;10.90;6.40;;;1.00;99.90;;;;;;4997476;28;20045;-76
2023/03/28 04:03:55;;;;;;;8.30;4.03;;;1.00;99.90;;;;;;4993553;28;20030;-77
2023/03/28 04:06:21;;;;;;;11.55;6.53;;;1.00;99.90;;;;;;4992093;28;20460;-77
2023/03/28 04:08:47;;;;;;;10.77;4.18;;;1.00;99.90;;;;;;4991146;28;20023;-77
2023/03/28 04:11:13;;;;;;;8.63;3.97;;;0.90;99.90;;;;;;4993593;28;20038;-78
2023/03/28 04:13:38;;;;;;;8.90;4.38;;;1.00;99.90;;;;;;4991711;28;20450;-78
2023/03/28 04:16:05;;;;;;;8.07;4.38;;;1.00;99.90;;;;;;4991093;28;20403;-78
2023/03/28 04:18:30;;;;;;;6.70;4.07;;;1.00;99.90;;;;;;5004058;28;20037;-78
2023/03/28 04:20:58;;;;;;;8.90;4.20;;;1.00;99.90;;;;;;4988452;28;20031;-79
2023/03/28 04:23:27;;;;;;;11.23;4.80;;;1.00;99.90;;;;;;5002269;28;20026;-79
2023/03/28 04:25:56;;;;;;;6.20;4.10;;;1.00;99.90;;;;;;4991888;28;20514;-79
2023/03/28 04:28:26;;;;;;;9.95;4.70;;;0.90;99.90;;;;;;4987687;28;20050;-78
2023/03/28 04:30:59;;;;;;;10.50;4.93;;;0.90;99.90;;;;;;4987798;28;20045;-77
2023/03/28 04:33:29;;;;;;;5.78;3.55;;;0.90;99.90;;;;;;4988596;28;20031;-78
2023/03/28 04:35:58;;;;;;;8.48;4.07;;;0.90;99.90;;;;;;4988769;28;20766;-78
2023/03/28 04:38:25;;;;;;;5.68;3.53;;;0.90;99.90;;;;;;4991988;28;20125;-78
2023/03/28 04:40:56;;;;;;;6.68;4.10;;;0.90;99.90;;;;;;4990831;28;20018;-79
2023/03/28 04:43:30;;;;;;;7.10;3.97;;;0.80;99.90;;;;;;4990441;28;20082;-78
2023/03/28 04:45:56;;;;;;;5.93;3.95;;;0.80;99.90;;;;;;4989865;28;20061;-78
2023/03/28 04:48:23;;;;;;;7.28;3.85;;;0.80;99.90;;;;;;4989572;28;20053;-77
2023/03/28 04:50:49;;;;;;;9.77;4.22;;;0.80;99.90;;;;;;4988668;28;20590;-76
2023/03/28 04:53:16;;;;;;;6.82;4.00;;;0.80;99.90;;;;;;4990548;28;20026;-76
2023/03/28 04:55:43;;;;;;;10.35;4.85;;;0.70;99.90;;;;;;4990403;28;20023;-76
2023/03/28 04:58:08;;;;;;;8.20;4.32;;;0.70;99.90;;;;;;4984752;28;20026;-76
2023/03/28 05:00:35;;;;;;;10.98;4.55;;;0.80;99.90;;;;;;4984367;28;20046;-76
2023/03/28 05:03:05;;;;;;;10.55;4.63;;;0.70;99.90;;;;;;4989747;28;20026;-78
2023/03/28 05:05:31;;;;;;;10.70;4.75;;;0.70;99.90;;;;;;4987568;28;20477;-78
2023/03/28 05:07:57;;;;;;;7.85;4.45;;;0.70;99.90;;;;;;4992153;28;20026;-78
2023/03/28 05:10:23;;;;;;;8.20;4.82;;;0.70;99.90;;;;;;4990599;28;20470;-77
2023/03/28 05:12:49;;;;;;;11.20;4.93;;;0.70;99.90;;;;;;4989182;28;20031;-78
2023/03/28 05:15:15;;;;;;;11.23;4.50;;;0.70;99.90;;;;;;4987050;28;20035;-78
2023/03/28 05:17:41;;;;;;;7.30;4.55;;;0.70;99.90;;;;;;4989213;28;20030;-78
2023/03/28 05:20:09;;;;;;;12.18;5.30;;;0.70;99.90;;;;;;4986443;28;20498;-78
2023/03/28 05:22:35;;;;;;;10.00;5.47;;;0.70;99.90;;;;;;4989877;28;20029;-78
2023/03/28 05:25:02;;;;;;;12.52;6.47;;;0.70;99.90;;;;;;4989190;28;20403;-78
2023/03/28 05:27:28;;;;;;;11.38;6.43;;;0.70;99.90;;;;;;4991733;28;20557;-77
2023/03/28 05:29:54;;;;;;;11.77;5.57;;;0.70;99.90;;;;;;4987965;28;20058;-78
2023/03/28 05:32:20;;;;;;;10.65;5.95;;;0.70;99.90;;;;;;4986959;28;20109;-77
2023/03/28 05:34:46;;;;;;;10.50;6.57;;;0.70;99.90;;;;;;4986416;28;20438;-78
2023/03/28 05:37:12;;;;;;;10.85;5.60;;;0.70;99.90;;;;;;4990977;28;20045;-77
2023/03/28 05:39:38;;;;;;;12.73;6.10;;;0.70;99.90;;;;;;4988433;28;20022;-79
2023/03/28 05:42:04;;;;;;;12.98;5.97;;;0.80;99.90;;;;;;4992531;28;20148;-78
2023/03/28 05:44:30;;;;;;;10.40;5.53;;;0.80;99.90;;;;;;5003485;28;20553;-78
2023/03/28 05:46:56;;;;;;;11.98;5.38;;;0.80;99.90;;;;;;5005477;28;20030;-78
2023/03/28 05:49:21;;;;;;;14.15;6.10;;;0.80;99.90;;;;;;4988238;28;20023;-78
2023/03/28 05:51:47;;;;;;;10.32;5.75;;;0.80;99.90;;;;;;5000179;28;20041;-77
2023/03/28 05:54:13;;;;;;;13.30;6.50;;;0.80;99.90;;;;;;4986158;28;20442;-78
2023/03/28 05:56:38;;;;;;;11.80;6.55;;;0.90;99.90;;;;;;4986813;28;20023;-77
2023/03/28 05:59:04;;;;;;;11.55;6.63;;;0.90;99.90;;;;;;4985465;28;20026;-77
2023/03/28 06:01:30;;;;;;;14.57;7.53;;;1.00;99.90;;;;;;4987781;28;20027;-77
2023/03/28 06:03:56;;;;;;;12.23;6.55;;;1.00;99.90;;;;;;5002200;28;20041;-77
2023/03/28 06:06:21;;;;;;;13.25;6.28;;;1.10;99.90;;;;;;4989581;28;20031;-78
2023/03/28 06:08:47;;;;;;;11.95;5.90;;;1.10;99.90;;;;;;4985102;28;20030;-78
2023/03/28 06:11:13;;;;;;;9.50;5.35;;;1.20;99.90;;;;;;4991251;28;20046;-78
2023/03/28 06:13:39;;;;;;;11.55;5.68;;;1.20;99.90;;;;;;4986617;28;20093;-78
2023/03/28 06:16:05;;;;;;;10.55;5.53;;;1.30;99.90;;;;;;4989001;28;20026;-79
2023/03/28 06:18:31;;;;;;;12.30;5.88;;;1.30;99.90;;;;;;5005132;28;20022;-79
2023/03/28 06:20:56;;;;;;;11.18;5.53;;;1.40;99.90;;;;;;4988311;28;20065;-79
2023/03/28 06:23:22;;;;;;;8.05;4.75;;;1.40;99.90;;;;;;4988270;28;20467;-79
2023/03/28 06:25:48;;;;;;;10.70;5.22;;;1.50;99.90;;;;;;4988011;28;20030;-79
2023/03/28 06:28:14;;;;;;;8.65;4.95;;;1.50;99.90;;;;;;4986904;28;20122;-78
2023/03/28 06:30:40;;;;;;;10.10;5.50;;;1.50;99.90;;;;;;4988047;28;20077;-79
2023/03/28 06:33:06;;;;;;;12.63;5.45;;;1.60;99.90;;;;;;4993768;28;20030;-79
2023/03/28 06:35:32;;;;;;;11.52;5.47;;;1.60;99.90;;;;;;4991990;28;20023;-78
2023/03/28 06:37:59;;;;;;;12.38;5.25;;;1.70;99.90;;;;;;4992399;28;20026;-79
2023/03/28 06:40:25;;;;;;;10.20;5.80;;;1.80;99.90;;;;;;4992438;28;20128;-78
2023/03/28 06:42:51;;;;;;;10.70;6.20;;;1.80;99.90;;;;;;4992874;28;20041;-78
2023/03/28 06:45:17;;;;;;;13.80;5.97;;;1.90;99.90;;;;;;4994731;28;20041;-78
2023/03/28 06:47:44;;;;;;;10.65;4.90;;;2.00;99.90;;;;;;4992689;28;20027;-77
2023/03/28 06:50:10;;;;;;;10.30;5.55;;;2.00;99.90;;;;;;4991474;28;20022;-77
2023/03/28 06:52:36;;;;;;;14.65;5.75;;;2.10;99.90;;;;;;4987137;28;20447;-71
2023/03/28 06:55:02;;;;;;;11.50;6.47;;;2.10;99.90;;;;;;4992509;28;20109;-70
2023/03/28 06:57:28;;;;;;;12.55;4.85;;;2.10;99.90;;;;;;4991930;28;20376;-71
2023/03/28 06:59:54;;;;;;;14.93;4.90;;;2.20;99.90;;;;;;4988417;28;20058;-70
2023/03/28 07:02:20;;;;;;;9.05;5.10;;;2.30;99.90;;;;;;4990550;28;20441;-71
2023/03/28 07:04:45;;;;;;;8.23;5.15;;;2.40;99.90;;;;;;4991580;28;20058;-77
2023/03/28 07:07:11;;;;;;;8.98;4.95;;;2.40;99.90;;;;;;4987104;28;20019;-78
2023/03/28 07:09:37;;;;;;;14.52;5.63;;;2.50;99.90;;;;;;4993522;28;20027;-79
2023/03/28 07:12:03;;;;;;;10.35;4.85;;;2.60;99.90;;;;;;4991297;28;20023;-77
2023/03/28 07:14:29;;;;;;;13.23;5.72;;;2.70;99.90;;;;;;4987296;28;20100;-76
2023/03/28 07:16:55;;;;;;;11.63;4.97;;;2.80;99.90;;;;;;4993415;28;20069;-76
2023/03/28 07:19:21;;;;;;;9.68;5.15;;;2.80;99.90;;;;;;4989684;28;20026;-76
2023/03/28 07:21:47;;;;;;;13.18;5.47;;;2.90;99.90;;;;;;4988137;28;20030;-77
2023/03/28 07:24:13;;;;;;;6.53;4.45;;;3.00;99.90;;;;;;4988605;28;20054;-77
2023/03/28 07:26:39;;;;;;;8.57;3.88;;;3.00;99.90;;;;;;4988046;28;20124;-77
2023/03/28 07:29:04;;;;;;;7.93;3.45;;;3.10;99.90;;;;;;4992392;28;20022;-77
2023/03/28 07:31:30;;;;;;;9.55;4.40;;;3.20;99.90;;;;;;4989443;28;20085;-77
2023/03/28 07:33:59;;;;;;;7.07;4.53;;;3.20;99.90;;;;;;4991450;28;21356;-77
2023/03/28 07:36:26;;;;;;;6.63;4.32;;;3.30;99.90;;;;;;4989705;28;20029;-78
2023/03/28 07:38:52;;;;;;;6.97;4.15;;;3.40;99.90;;;;;;4989594;28;20035;-77
2023/03/28 07:41:18;;;;;;;7.95;3.55;;;3.50;99.90;;;;;;4992205;28;20635;-77
2023/03/28 07:43:44;;;;;;;11.68;3.75;;;3.70;99.90;;;;;;4998360;28;20207;-78
2023/03/28 07:46:13;;;;;;;6.47;3.47;;;3.80;99.90;;;;;;4993642;28;20030;-78
2023/03/28 07:48:39;;;;;;;7.55;3.45;;;3.80;99.90;;;;;;4983631;28;20031;-77
2023/03/28 07:51:06;;;;;;;13.05;3.72;;;3.90;99.90;;;;;;4990700;28;20025;-79
2023/03/28 07:53:33;;;;;;;11.68;3.70;;;3.90;99.90;;;;;;5007701;28;20033;-78
2023/03/28 07:55:59;;;;;;;7.25;3.13;;;4.00;99.90;;;;;;4991741;28;20038;-77
2023/03/28 07:58:24;;;;;;;8.05;3.25;;;4.10;99.90;;;;;;4990037;28;20049;-78
2023/03/28 08:00:50;;;;;;;6.20;2.92;;;4.20;99.90;;;;;;4991803;28;20271;-78
2023/03/28 08:03:17;;;;;;;7.88;3.10;;;4.30;99.90;;;;;;4992244;28;20434;-77
2023/03/28 08:05:48;;;;;;;6.90;3.00;;;4.40;99.90;;;;;;4997472;28;20034;-77
2023/03/28 08:08:14;;;;;;;9.23;3.08;;;4.50;99.90;;;;;;4993149;28;20032;-78
2023/03/28 08:10:39;;;;;;;10.45;3.13;;;4.50;99.90;;;;;;4992589;28;20022;-78
2023/03/28 08:13:05;;;;;;;12.07;6.53;;;4.60;99.90;;;;;;4992721;28;20030;-77
2023/03/28 08:15:31;;;;;;;12.15;6.65;;;4.60;99.90;;;;;;4991449;28;20057;-76
2023/03/28 08:17:57;;;;;;;12.55;4.30;;;4.60;99.90;;;;;;4991281;28;20121;-77
2023/03/28 08:20:22;;;;;;;11.23;4.70;;;4.70;99.90;;;;;;4995975;28;20475;-77
2023/03/28 08:22:48;;;;;;;10.15;3.60;;;4.70;99.90;;;;;;4992826;28;20446;-78
2023/03/28 08:25:14;;;;;;;8.55;3.28;;;4.60;99.90;;;;;;4991747;28;20030;-78
2023/03/28 08:27:39;;;;;;;19.10;7.43;;;4.60;99.90;;;;;;4994222;28;20517;-77
2023/03/28 08:30:06;;;;;;;11.23;4.43;;;4.60;99.90;;;;;;4988397;28;20111;-79
2023/03/28 08:32:32;;;;;;;10.25;4.00;;;4.70;99.90;;;;;;4987459;28;20153;-79
2023/03/28 08:35:01;;;;;;;7.50;2.75;;;4.70;99.90;;;;;;4994280;28;20873;-79
2023/03/28 08:37:28;;;;;;;8.05;2.60;;;4.80;99.90;;;;;;4991415;28;20034;-79
2023/03/28 08:39:54;;;;;;;11.38;2.53;;;4.70;99.90;;;;;;4990395;28;20040;-78
2023/03/28 08:42:41;;;;;;;4.32;1.85;;;4.80;99.90;;;;;;4988924;28;20037;-78
2023/03/28 08:45:16;;;;;;;8.63;2.25;;;4.90;99.90;;;;;;4991328;28;20018;-78
2023/03/28 08:47:59;;;;;;;7.22;2.38;;;4.90;99.90;;;;;;4991455;28;20042;-78
2023/03/28 08:50:37;;;;;;;11.88;2.65;;;4.80;99.90;;;;;;4988463;28;20471;-78
2023/03/28 08:53:05;;;;;;;9.27;2.42;;;4.90;99.90;;;;;;5003818;28;20026;-79
2023/03/28 08:55:40;;;;;;;9.30;2.35;;;4.90;99.90;;;;;;5006498;28;20034;-78
2023/03/28 08:58:11;;;;;;;5.25;3.33;;;5.00;99.90;;;;;;4997535;28;20018;-79
2023/03/28 09:00:37;;;;;;;3.60;1.95;;;5.00;99.90;;;;;;4994686;28;20414;-79
2023/03/28 09:03:15;;;;;;;6.07;3.00;;;5.10;99.90;;;;;;4993821;28;20101;-79
2023/03/28 09:06:11;;;;;;;5.25;2.33;;;5.00;99.90;;;;;;4991476;28;20078;-79
2023/03/28 09:08:57;;;;;;;9.40;2.03;;;5.10;99.90;;;;;;4989056;28;20014;-79
2023/03/28 09:12:18;;;;;;;6.85;2.95;;;5.20;99.90;;;;;;4995003;28;20031;-79
2023/03/28 09:14:57;;;;;;;5.55;2.13;;;5.20;99.90;;;;;;4950862;28;20104;-79
2023/03/28 09:17:35;;;;;;;6.95;2.67;;;5.30;99.90;;;;;;4988556;28;20032;-79
2023/03/28 09:20:25;;;;;;;8.07;2.67;;;5.50;99.90;;;;;;4990585;28;20422;-79
2023/03/28 09:23:19;;;;;;;7.85;2.30;;;5.60;99.90;;;;;;4986021;28;20038;-79
2023/03/28 09:25:50;;;;;;;5.78;2.35;;;5.70;99.90;;;;;;4985354;28;20029;-78
2023/03/28 09:28:24;;;;;;;4.45;2.17;;;5.80;99.90;;;;;;4982049;28;20038;-80
2023/03/28 09:30:52;;;;;;;6.63;2.25;;;5.80;99.90;;;;;;4964861;28;20140;-79
2023/03/28 09:33:26;;;;;;;6.45;2.33;;;5.80;99.90;;;;;;4976716;28;20035;-80
2023/03/28 09:35:56;;;;;;;7.13;1.83;;;6.00;99.90;;;;;;4979791;28;20049;-79
2023/03/28 09:38:36;;;;;;;4.50;2.20;;;6.00;99.90;;;;;;4974511;28;20400;-79
2023/03/28 09:41:10;;;;;;;6.25;2.17;;;6.10;99.90;;;;;;4989843;28;20359;-78
2023/03/28 09:43:48;;;;;;;4.07;1.48;;;6.20;99.90;;;;;;4985204;28;20029;-77
2023/03/28 09:46:37;;;;;;;5.85;2.22;;;6.20;99.20;;;;;;4988868;28;20054;-78
2023/03/28 09:49:03;;;;;;;4.65;1.70;;;6.30;99.40;;;;;;5004960;28;20030;-78
2023/03/28 09:51:28;;;;;;;6.07;3.08;;;6.40;96.70;;;;;;4990346;28;20041;-78
2023/03/28 09:53:54;;;;;;;14.88;3.58;;;6.40;96.30;;;;;;4989841;28;20084;-78
2023/03/28 09:56:27;;;;;;;8.88;4.43;;;6.40;95.40;;;;;;4988825;28;20498;-78
2023/03/28 09:58:58;;;;;;;8.02;3.53;;;6.50;95.70;;;;;;4986645;28;20398;-77
2023/03/28 10:01:23;;;;;;;6.82;2.67;;;6.50;93.00;;;;;;4990566;28;20049;-77
2023/03/28 10:03:54;;;;;;;10.32;4.85;;;6.40;92.00;;;;;;4995346;23;20042;-75
2023/03/28 10:06:26;;;;;;;9.27;3.22;;;6.40;92.10;;;;;;4961431;28;20510;-74
2023/03/28 10:09:07;;;;;;;7.28;2.80;;;6.30;91.90;;;;;;4968519;28;20044;-73
2023/03/28 10:11:47;;;;;;;6.68;2.13;;;6.40;92.40;;;;;;4963381;28;20105;-71
2023/03/28 10:14:35;;;;;;;6.32;1.95;;;6.50;93.10;;;;;;4967017;28;20034;-71
2023/03/28 10:17:05;;;;;;;9.10;2.58;;;6.50;92.10;;;;;;4965273;28;20026;-73
2023/03/28 10:19:38;;;;;;;4.03;2.30;;;6.40;91.60;;;;;;4967362;28;20026;-72
2023/03/28 10:22:09;;;;;;;8.20;2.40;;;6.40;91.70;;;;;;4967178;28;20199;-73
2023/03/28 10:24:36;;;;;;;4.22;1.75;;;6.40;92.40;;;;;;4959128;28;20035;-71
2023/03/28 10:27:25;;;;;;;3.67;1.80;;;6.40;92.10;;;;;;4978168;28;20034;-71
2023/03/28 10:29:54;;;;;;;2.75;1.38;;;6.60;92.60;;;;;;4977246;28;20058;-74
2023/03/28 10:32:26;;;;;;;6.32;1.75;;;6.70;92.70;;;;;;4968375;28;20054;-74
2023/03/28 10:35:17;;;;;;;10.00;2.03;;;6.60;91.90;;;;;;4962669;28;20165;-75
2023/03/28 10:37:47;;;;;;;5.93;2.20;;;6.60;93.10;;;;;;4968760;28;20041;-76
2023/03/28 10:40:19;;;;;;;9.00;2.70;;;6.70;92.20;;;;;;4962160;28;20122;-74
2023/03/28 10:42:48;;;;;;;5.82;2.15;;;6.70;91.80;;;;;;4978726;28;20035;-74
2023/03/28 10:45:39;;;;;;;3.45;1.60;;;6.70;91.00;;;;;;4982584;28;20034;-74
2023/03/28 10:48:33;;;;;;;3.00;1.35;;;6.80;90.90;;;;;;4959885;28;20085;-75
2023/03/28 10:51:07;;;;;;;3.70;1.58;;;6.80;91.20;;;;;;4955279;28;20130;-72
2023/03/28 10:53:39;;;;;;;3.28;1.50;;;6.80;91.40;;;;;;4956157;28;20073;-72
2023/03/28 10:56:40;;;;;;;6.97;2.45;;;6.70;92.40;;;;;;4958957;28;20027;-74
2023/03/28 10:59:17;;;;;;;4.38;2.13;;;6.70;91.80;;;;;;4960441;28;20425;-71
2023/03/28 11:01:57;;;;;;;4.55;1.95;;;6.60;91.30;;;;;;4952682;28;20023;-71
2023/03/28 11:04:32;;;;;;;5.55;1.70;;;6.50;91.10;;;;;;4957068;28;20062;-72
2023/03/28 11:07:04;;;;;;;7.22;1.95;;;6.60;91.00;;;;;;4957949;28;20039;-73
2023/03/28 11:09:51;;;;;;;4.70;1.90;;;6.50;90.80;;;;;;4953664;28;20114;-74
2023/03/28 11:12:29;;;;;;;4.43;2.10;;;6.50;90.80;;;;;;4965426;28;20029;-74
2023/03/28 11:15:00;;;;;;;5.38;1.60;;;6.50;91.40;;;;;;4958733;28;20365;-71
2023/03/28 11:17:44;;;;;;;3.03;1.50;;;6.60;91.20;;;;;;4965271;28;20038;-72
2023/03/28 11:20:28;;;;;;;;;;;6.70;90.80;;;;;;4963504;28;20027;-71
2023/03/28 11:23:08;;;;;;;4.28;1.80;;;6.80;91.00;;;;;;4965688;28;19985;-73
2023/03/28 11:26:16;;;;;;;5.88;2.35;;;6.90;91.40;;;;;;4974538;28;20066;-73
2023/03/28 11:29:01;;;;;;;4.38;1.77;;;6.90;91.10;;;;;;4964092;28;20038;-74
2023/03/28 11:31:50;;;;;;;8.00;2.08;;;6.90;89.90;;;;;;4948687;28;20050;-74
2023/03/28 11:34:34;;;;;;;4.15;1.58;;;6.90;90.30;;;;;;4958487;28;20034;-74
2023/03/28 11:37:08;;;;;;;5.65;1.63;;;7.00;90.20;;;;;;4966878;28;20030;-74
2023/03/28 11:39:56;;;;;;;5.40;2.03;;;7.00;90.30;;;;;;4967022;28;20551;-75
2023/03/28 11:42:46;;;;;;;7.40;1.88;;;7.00;90.30;;;;;;4959479;28;20032;-74
2023/03/28 11:45:28;;;;;;;3.03;1.35;;;7.10;89.60;;;;;;4965422;28;20117;-76
2023/03/28 11:48:14;;;;;;;6.53;1.65;;;7.20;89.80;;;;;;4966809;28;20055;-74
2023/03/28 11:50:45;;;;;;;4.97;1.50;;;7.30;88.70;;;;;;4965346;28;20255;-73
2023/03/28 11:53:22;;;;;;;3.33;1.65;;;7.30;88.40;;;;;;4967376;28;20058;-71
2023/03/28 11:55:54;;;;;;;5.07;1.55;;;7.40;87.20;;;;;;4964843;28;20129;-73
2023/03/28 11:58:26;;;;;;;5.63;1.40;;;7.40;85.20;;;;;;4962888;28;20455;-73
2023/03/28 12:01:11;;;;;;;2.08;1.00;;;7.40;84.80;;;;;;4967518;28;20284;-73
2023/03/28 12:03:44;;;;;;;;;;;7.50;85.40;;;;;;4959430;28;21949;-72
2023/03/28 12:06:39;;;;;;;4.85;1.77;;;7.50;83.20;;;;;;4963776;28;19921;-75
2023/03/28 12:09:29;;;;;;;2.38;1.20;;;7.50;83.60;;;;;;4962042;28;20114;-73
2023/03/28 12:12:03;;;;;;;3.17;1.25;;;7.40;83.40;;;;;;4973082;28;20151;-73
2023/03/28 12:14:47;;;;;;;4.82;1.45;;;7.40;84.20;;;;;;4961654;28;20472;-72
2023/03/28 12:17:24;;;;;;;5.18;1.80;;;7.40;83.70;;;;;;4962390;28;20655;-73
2023/03/28 12:19:50;;;;;;;5.78;1.40;;;7.50;83.50;;;;;;4976881;28;20030;-72
2023/03/28 12:22:36;;;;;;;2.25;1.20;;;7.50;82.30;;;;;;4963429;28;20027;-72
2023/03/28 12:25:34;;;;;;;7.00;1.65;;;7.60;81.60;;;;;;4966526;28;20018;-73
2023/03/28 12:28:42;;;;;;;6.38;1.40;;;7.60;82.30;;;;;;4960170;28;20038;-72
2023/03/28 12:31:21;;;;;;;5.05;1.63;;;7.60;82.10;;;;;;4921537;29;20027;-75
2023/03/28 12:34:41;;;;;;;4.68;2.00;;;7.70;82.10;;;;;;4919202;29;20091;-76
2023/03/28 12:37:17;;;;;;;7.40;2.03;;;7.70;82.00;;;;;;4915034;29;20083;-74
2023/03/28 12:39:43;;;;;;;4.00;1.70;;;7.90;83.80;;;;;;4920193;29;20027;-75
2023/03/28 12:42:14;;;;;;;4.30;1.45;;;8.00;81.90;;;;;;4952904;28;20173;-73
2023/03/28 12:44:51;;;;;;;4.05;1.88;;;8.00;81.50;;;;;;4980290;28;20043;-75
2023/03/28 12:47:26;;;;;;;3.35;1.30;;;8.20;84.30;;;;;;4965279;28;20030;-74
2023/03/28 12:50:01;;;;;;;5.45;1.42;;;8.30;83.80;;;;;;4957053;28;20435;-75
2023/03/28 12:52:35;;;;;;;2.78;1.52;;;8.40;81.30;;;;;;4977464;28;20492;-73
2023/03/28 12:55:08;;;;;;;5.60;2.08;;;8.40;81.80;;;;;;4959123;28;20018;-73
2023/03/28 12:57:39;;;;;;;6.97;1.90;;;8.50;83.30;;;;;;4957387;28;20047;-73
2023/03/28 13:00:21;;;;;;;7.70;1.88;;;8.60;81.30;;;;;;4963668;28;20551;-73
2023/03/28 13:02:51;;;;;;;5.20;1.58;;;8.60;78.80;;;;;;4956683;28;20035;-74
2023/03/28 13:05:28;;;;;;;3.55;1.50;;;8.60;78.00;;;;;;4968118;28;20442;-74
2023/03/28 13:08:01;;;;;;;4.18;2.30;;;8.50;78.50;;;;;;4964026;28;20091;-76
2023/03/28 13:10:54;;;;;;;7.65;1.90;;;8.50;78.40;;;;;;4976202;28;20027;-73
2023/03/28 13:13:33;;;;;;;3.92;1.50;;;8.50;79.20;;;;;;4961096;28;20114;-75
2023/03/28 13:16:11;;;;;;;4.70;1.25;;;8.50;78.30;;;;;;4963403;28;20027;-74
2023/03/28 13:18:46;;;;;;;5.05;1.80;;;8.40;77.80;;;;;;4957943;28;20045;-75
2023/03/28 13:21:32;;;;;;;2.80;1.30;;;8.40;78.90;;;;;;4962539;28;20018;-73
2023/03/28 13:23:59;;;;;;;3.53;1.73;;;8.40;78.90;;;;;;4965931;28;20747;-76